createdAt,value
2023-01-17T00:02:26.639Z,3.54
2023-01-17T00:07:48.518Z,3.49
2023-01-17T00:12:56.627Z,3.51
2023-01-17T00:17:59.532Z,3.60
2023-01-17T00:23:31.267Z,3.70
2023-01-17T00:28:37.669Z,3.76
2023-01-17T00:33:42.581Z,3.84
2023-01-17T00:38:45.503Z,3.84
2023-01-17T00:44:06.946Z,3.83
2023-01-17T00:49:28.630Z,3.82
2023-01-17T00:54:50.102Z,3.81
2023-01-17T01:00:11.514Z,3.79
2023-01-17T01:05:33.576Z,3.79
2023-01-17T01:10:55.377Z,3.82
2023-01-17T01:16:23.790Z,3.81
2023-01-17T01:21:45.431Z,3.81
2023-01-17T01:27:06.968Z,3.83
2023-01-17T01:32:29.266Z,3.83
2023-01-17T01:37:32.252Z,3.80
2023-01-17T01:42:35.106Z,3.81
2023-01-17T01:47:38.630Z,3.80
2023-01-17T01:52:45.890Z,3.75
2023-01-17T01:57:51.079Z,3.75
2023-01-17T02:02:53.846Z,3.76
2023-01-17T02:08:05.107Z,3.75
2023-01-17T02:13:08.699Z,3.75
2023-01-17T02:18:44.865Z,3.72
2023-01-17T02:24:30.757Z,3.75
2023-01-17T02:29:48.909Z,3.80
2023-01-17T02:34:56.745Z,3.76
2023-01-17T02:40:06.527Z,3.75
2023-01-17T02:45:20.263Z,3.75
2023-01-17T02:50:26.844Z,3.72
2023-01-17T02:56:23.798Z,3.71
2023-01-17T03:01:52.645Z,3.71
2023-01-17T03:07:02.084Z,3.71
2023-01-17T03:12:05.317Z,3.73
2023-01-17T03:17:08.091Z,3.74
2023-01-17T03:22:11.043Z,3.73
2023-01-17T03:27:13.795Z,3.75
2023-01-17T03:32:16.565Z,3.73
2023-01-17T03:37:19.509Z,3.69
2023-01-17T03:42:22.315Z,3.65
2023-01-17T03:47:25.152Z,3.63
2023-01-17T03:52:28.285Z,3.65
2023-01-17T03:57:32.398Z,3.65
2023-01-17T04:02:35.318Z,3.63
2023-01-17T04:07:39.004Z,3.60
2023-01-17T04:12:42.009Z,3.61
2023-01-17T04:17:45.147Z,3.61
2023-01-17T04:22:48.013Z,3.60
2023-01-17T04:27:50.756Z,3.56
2023-01-17T04:32:53.572Z,3.56
2023-01-17T04:37:56.388Z,3.56
2023-01-17T04:42:59.693Z,3.58
2023-01-17T04:48:06.920Z,3.60
2023-01-17T04:53:09.769Z,3.55
2023-01-17T04:58:12.678Z,3.54
2023-01-17T05:03:15.981Z,3.51
2023-01-17T05:08:18.876Z,3.44
2023-01-17T05:13:21.742Z,3.31
2023-01-17T05:18:24.837Z,3.23
2023-01-17T05:23:28.724Z,3.25
2023-01-17T05:28:31.504Z,3.28
2023-01-17T05:33:34.565Z,3.26
2023-01-17T05:38:37.321Z,3.19
2023-01-17T05:43:40.129Z,3.17
2023-01-17T05:48:42.893Z,3.17
2023-01-17T05:53:46.042Z,3.10
2023-01-17T05:58:48.810Z,3.02
2023-01-17T06:03:51.731Z,2.96
2023-01-17T06:08:54.559Z,2.92
2023-01-17T06:13:57.358Z,2.91
2023-01-17T06:19:01.966Z,2.94
2023-01-17T06:24:05.250Z,3.00
2023-01-17T06:29:08.037Z,3.03
2023-01-17T06:35:02.676Z,3.11
2023-01-17T06:40:07.230Z,3.02
2023-01-17T06:45:11.028Z,2.89
2023-01-17T06:50:14.878Z,2.80
2023-01-17T06:55:17.934Z,2.70
2023-01-17T07:00:21.395Z,2.58
2023-01-17T07:05:26.932Z,2.54
2023-01-17T07:10:29.762Z,2.50
2023-01-17T07:15:32.635Z,2.43
2023-01-17T07:20:35.571Z,2.43
2023-01-17T07:25:38.381Z,2.39
2023-01-17T07:30:41.465Z,2.36
2023-01-17T07:35:44.895Z,2.37
2023-01-17T07:40:48.888Z,2.36
2023-01-17T07:45:52.271Z,2.37
2023-01-17T07:50:56.357Z,2.43
2023-01-17T07:56:07.611Z,2.47
2023-01-17T08:01:13.942Z,2.47
2023-01-17T08:06:23.354Z,2.49
2023-01-17T08:11:26.226Z,2.55
2023-01-17T08:16:29.754Z,2.55
2023-01-17T08:21:32.925Z,2.65
2023-01-17T08:26:35.709Z,2.73
2023-01-17T08:31:38.564Z,2.82
2023-01-17T08:36:42.993Z,2.95
2023-01-17T08:41:45.937Z,3.07
2023-01-17T08:46:48.951Z,3.11
2023-01-17T08:51:52.820Z,3.10
2023-01-17T08:56:55.739Z,3.23
2023-01-17T09:01:58.921Z,3.36
2023-01-17T09:07:02.718Z,3.47
2023-01-17T09:12:06.590Z,3.56
2023-01-17T09:17:09.511Z,3.66
2023-01-17T09:22:12.393Z,3.80
2023-01-17T09:27:15.179Z,3.91
2023-01-17T09:32:18.039Z,3.97
2023-01-17T09:37:20.818Z,4.08
2023-01-17T09:42:35.321Z,4.22
2023-01-17T09:47:42.837Z,4.31
2023-01-17T09:52:45.684Z,4.33
2023-01-17T09:58:12.404Z,4.40
2023-01-17T10:03:26.599Z,4.43
2023-01-17T10:09:19.248Z,4.43
2023-01-17T10:14:51.417Z,4.38
2023-01-17T10:20:12.730Z,4.38
2023-01-17T10:25:48.251Z,4.37
2023-01-17T10:31:16.517Z,4.39
2023-01-17T10:36:25.665Z,4.50
2023-01-17T10:41:30.574Z,4.53
2023-01-17T10:46:41.785Z,4.52
2023-01-17T10:51:44.811Z,4.58
2023-01-17T10:56:48.380Z,4.63
2023-01-17T11:01:51.644Z,4.66
2023-01-17T11:07:14.710Z,4.68
2023-01-17T11:12:35.989Z,4.73
2023-01-17T11:17:46.075Z,4.77
2023-01-17T11:23:29.609Z,4.75
2023-01-17T11:28:34.873Z,4.73
2023-01-17T11:34:18.077Z,4.77
2023-01-17T11:39:28.080Z,4.74
2023-01-17T11:44:36.364Z,4.71
2023-01-17T11:49:44.271Z,4.74
2023-01-17T11:54:47.662Z,4.76
2023-01-17T11:59:53.211Z,4.76
2023-01-17T12:05:36.970Z,4.74
2023-01-17T12:11:08.477Z,4.73
2023-01-17T12:16:33.921Z,4.73
2023-01-17T12:22:22.774Z,4.63
2023-01-17T12:27:47.028Z,4.60
2023-01-17T12:33:19.278Z,4.56
2023-01-17T12:38:39.302Z,4.50
2023-01-17T12:43:43.638Z,4.54
2023-01-17T12:48:50.844Z,4.57
2023-01-17T12:54:00.191Z,4.57
2023-01-17T12:59:43.428Z,4.53
2023-01-17T13:05:38.761Z,4.51
2023-01-17T13:10:47.824Z,4.55
2023-01-17T13:16:06.979Z,4.67
2023-01-17T13:21:29.614Z,4.73
2023-01-17T13:26:51.880Z,4.86
2023-01-17T13:32:19.133Z,4.90
2023-01-17T13:38:08.450Z,4.85
2023-01-17T13:43:34.167Z,4.73
2023-01-17T13:48:45.533Z,4.61
2023-01-17T13:53:48.409Z,4.50
2023-01-17T13:59:02.724Z,4.42
2023-01-17T14:04:12.746Z,4.34
2023-01-17T14:09:17.092Z,4.26
2023-01-17T14:14:42.815Z,4.20
2023-01-17T14:19:48.224Z,4.10
2023-01-17T14:25:02.260Z,3.98
2023-01-17T14:30:15.250Z,3.91
2023-01-17T14:35:22.510Z,3.83
2023-01-17T14:40:29.561Z,3.71
2023-01-17T14:45:34.865Z,3.57
2023-01-17T14:50:39.571Z,3.49
2023-01-17T14:55:56.296Z,3.39
2023-01-17T15:01:17.760Z,3.25
2023-01-17T15:06:39.665Z,3.12
2023-01-17T15:11:42.644Z,3.04
2023-01-17T15:16:45.817Z,2.93
2023-01-17T15:21:52.205Z,2.81
2023-01-17T15:26:55.244Z,2.62
2023-01-17T15:32:00.047Z,2.51
2023-01-17T15:37:21.012Z,2.43
2023-01-17T15:42:26.855Z,2.31
2023-01-17T15:47:40.169Z,2.21
2023-01-17T15:52:58.826Z,2.14
2023-01-17T15:58:01.837Z,2.01
2023-01-17T16:03:29.433Z,1.91
2023-01-17T16:08:38.736Z,1.88
2023-01-17T16:13:43.495Z,1.91
2023-01-17T16:18:46.893Z,1.91
2023-01-17T16:23:49.915Z,1.80
2023-01-17T16:28:52.790Z,1.70
2023-01-17T16:33:56.218Z,1.64
2023-01-17T16:38:59.044Z,1.60
2023-01-17T16:44:03.507Z,1.57
2023-01-17T16:49:06.398Z,1.56
2023-01-17T16:54:09.223Z,1.51
2023-01-17T16:59:12.041Z,1.44
2023-01-17T17:04:14.946Z,1.45
2023-01-17T17:09:18.324Z,1.36
2023-01-17T17:14:21.353Z,1.28
2023-01-17T17:19:25.335Z,1.26
2023-01-17T17:24:28.437Z,1.26
2023-01-17T17:29:31.366Z,1.16
2023-01-17T17:34:36.699Z,1.13
2023-01-17T17:39:40.231Z,1.10
2023-01-17T17:44:43.021Z,1.05
2023-01-17T17:49:45.957Z,1.03
2023-01-17T17:54:49.022Z,1.01
2023-01-17T17:59:56.147Z,0.94
2023-01-17T18:04:59.004Z,0.95
2023-01-17T18:11:26.444Z,0.93
2023-01-17T18:16:37.458Z,0.86
2023-01-17T18:21:41.854Z,0.84
2023-01-17T18:26:47.209Z,0.82
2023-01-17T18:31:50.818Z,0.72
2023-01-17T18:36:53.613Z,0.68
2023-01-17T18:41:56.620Z,0.63
2023-01-17T18:47:04.419Z,0.60
2023-01-17T18:52:09.414Z,0.65
2023-01-17T18:57:13.208Z,0.66
2023-01-17T19:02:17.900Z,0.61
2023-01-17T19:07:21.835Z,0.60
2023-01-17T19:12:25.161Z,0.60
2023-01-17T19:17:27.925Z,0.53
2023-01-17T19:22:30.828Z,0.56
2023-01-17T19:27:33.805Z,0.61
2023-01-17T19:32:36.676Z,0.59
2023-01-17T19:37:43.761Z,0.61
2023-01-17T19:42:46.866Z,0.60
2023-01-17T19:47:49.720Z,0.54
2023-01-17T19:52:53.221Z,0.55
2023-01-17T19:57:56.333Z,0.56
2023-01-17T20:02:59.470Z,0.50
2023-01-17T20:08:02.516Z,0.50
2023-01-17T20:13:05.360Z,0.51
2023-01-17T20:18:08.193Z,0.47
2023-01-17T20:23:11.023Z,0.44
2023-01-17T20:28:14.237Z,0.39
2023-01-17T20:33:18.602Z,0.42
2023-01-17T20:38:21.485Z,0.36
2023-01-17T20:43:24.936Z,0.28
2023-01-17T20:48:27.876Z,0.29
2023-01-17T20:53:35.208Z,0.27
2023-01-17T20:58:41.321Z,0.21
2023-01-17T21:03:44.139Z,0.18
2023-01-17T21:08:47.412Z,0.20
2023-01-17T21:13:51.368Z,0.12
2023-01-17T21:18:54.207Z,0.05
2023-01-17T21:23:58.885Z,0.10
2023-01-17T21:29:02.086Z,0.07
2023-01-17T21:34:07.194Z,0.00
2023-01-17T21:39:16.041Z,0.03
2023-01-17T21:44:21.230Z,0.02
2023-01-17T21:49:24.089Z,0.05
2023-01-17T21:54:47.078Z,0.05
2023-01-17T21:59:50.204Z,0.09
2023-01-17T22:04:54.744Z,0.10
2023-01-17T22:09:57.586Z,0.06
2023-01-17T22:15:00.406Z,0.12
2023-01-17T22:20:03.546Z,0.20
2023-01-17T22:25:06.663Z,0.24
2023-01-17T22:30:13.079Z,0.24
2023-01-17T22:35:16.169Z,0.21
2023-01-17T22:40:19.205Z,0.25
2023-01-17T22:45:22.066Z,0.30
2023-01-17T22:50:24.843Z,0.32
2023-01-17T22:55:27.977Z,0.36
2023-01-17T23:00:31.588Z,0.41
2023-01-17T23:05:34.467Z,0.40
2023-01-17T23:10:56.089Z,0.36
2023-01-17T23:16:23.775Z,0.38
2023-01-17T23:21:46.563Z,0.45
2023-01-17T23:27:09.289Z,0.52
2023-01-17T23:32:12.115Z,0.50
2023-01-17T23:37:15.198Z,0.53
2023-01-17T23:42:41.017Z,0.54
2023-01-17T23:47:45.048Z,0.62
2023-01-17T23:52:47.896Z,0.62
2023-01-17T23:57:51.857Z,0.69
